Terminal Aerodrome Forecast
Issued by NWS Caribou, ME

Home | Current Version | Previous Version | Text Only | Print | Product List | Glossary On
Versions: 1 2 3 4 5 6 7 8 9 10 11 12 13 14
000
FTUS41 KCAR 261120
TAFCAR
TAF
KCAR 261120Z 2612/2712 16011KT 5SM -RA BR OVC008
     FM261900 15005KT P6SM OVC003
     FM270200 24008KT P6SM VCSH OVC006
     FM270500 26009KT P6SM OVC007
     FM271000 26006KT P6SM SCT050=

USA.gov is the U.S. government's official web portal to all federal, state and local government web resources and services.